createdAt,value
2022-11-16T00:00:46.595Z,0.00
2022-11-16T00:01:46.573Z,0.00
2022-11-16T00:02:46.539Z,1.00
2022-11-16T00:03:46.605Z,0.00
2022-11-16T00:04:46.564Z,0.00
2022-11-16T00:05:46.556Z,0.00
2022-11-16T00:06:46.523Z,0.00
2022-11-16T00:07:46.512Z,0.00
2022-11-16T00:08:46.487Z,0.00
2022-11-16T00:09:46.461Z,0.00
2022-11-16T00:10:46.457Z,0.00
2022-11-16T00:11:46.477Z,0.00
2022-11-16T00:12:46.437Z,0.00
2022-11-16T00:13:46.426Z,0.00
2022-11-16T00:14:46.440Z,0.00
2022-11-16T00:15:46.431Z,0.00
2022-11-16T00:16:46.427Z,0.00
2022-11-16T00:17:46.400Z,0.00
2022-11-16T00:18:46.417Z,0.00
2022-11-16T00:19:46.388Z,0.00
2022-11-16T00:20:46.396Z,0.00
2022-11-16T00:21:46.333Z,0.00
2022-11-16T00:22:46.332Z,0.00
2022-11-16T00:23:46.325Z,0.00
2022-11-16T00:24:46.342Z,0.00
2022-11-16T00:25:46.318Z,0.00
2022-11-16T00:26:46.355Z,0.00
2022-11-16T00:27:46.273Z,0.00
2022-11-16T00:28:46.295Z,0.00
2022-11-16T00:29:46.273Z,0.00
2022-11-16T00:30:46.278Z,0.00
2022-11-16T00:31:46.319Z,0.00
2022-11-16T00:32:46.260Z,0.00
2022-11-16T00:33:46.246Z,0.00
2022-11-16T00:34:46.211Z,0.00
2022-11-16T00:35:46.201Z,0.00
2022-11-16T00:36:46.213Z,0.00
2022-11-16T00:37:46.224Z,0.00
2022-11-16T00:38:46.251Z,0.00
2022-11-16T00:39:46.236Z,0.00
2022-11-16T00:40:46.171Z,0.00
2022-11-16T00:41:46.148Z,0.00
2022-11-16T00:42:46.164Z,0.00
2022-11-16T00:43:46.138Z,0.00
2022-11-16T00:44:46.153Z,0.00
2022-11-16T00:45:46.097Z,0.00
2022-11-16T00:46:46.139Z,0.00
2022-11-16T00:47:46.089Z,0.00
2022-11-16T00:48:46.122Z,0.00
2022-11-16T00:49:46.072Z,0.00
2022-11-16T00:50:46.085Z,0.00
2022-11-16T00:51:46.046Z,0.00
2022-11-16T00:52:46.116Z,0.00
2022-11-16T00:53:46.035Z,0.00
2022-11-16T00:54:46.030Z,0.00
2022-11-16T00:55:46.030Z,0.00
2022-11-16T00:56:45.994Z,0.00
2022-11-16T00:57:46.261Z,0.00
2022-11-16T00:58:45.968Z,0.00
2022-11-16T00:59:45.948Z,0.00
2022-11-16T01:00:45.940Z,0.00
2022-11-16T01:01:45.985Z,0.00
2022-11-16T01:02:45.936Z,0.00
2022-11-16T01:03:45.975Z,0.00
2022-11-16T01:04:45.926Z,0.00
2022-11-16T01:05:45.907Z,0.00
2022-11-16T01:06:45.910Z,0.00
2022-11-16T01:07:45.894Z,0.00
2022-11-16T01:08:45.905Z,0.00
2022-11-16T01:09:45.877Z,0.00
2022-11-16T01:10:45.883Z,0.00
2022-11-16T01:11:45.896Z,0.00
2022-11-16T01:12:45.846Z,0.00
2022-11-16T01:13:45.885Z,0.00
2022-11-16T01:14:45.813Z,0.00
2022-11-16T01:15:46.059Z,0.00
2022-11-16T01:16:45.777Z,0.00
2022-11-16T01:17:45.773Z,0.00
2022-11-16T01:18:45.791Z,0.00
2022-11-16T01:19:45.757Z,0.00
2022-11-16T01:20:45.761Z,0.00
2022-11-16T01:21:45.732Z,0.00
2022-11-16T01:22:45.726Z,0.00
2022-11-16T01:23:45.720Z,0.00
2022-11-16T01:24:45.771Z,0.00
2022-11-16T01:25:45.697Z,0.00
2022-11-16T01:26:45.674Z,0.00
2022-11-16T01:27:45.672Z,0.00
2022-11-16T01:28:45.684Z,0.00
2022-11-16T01:29:45.689Z,0.00
2022-11-16T01:30:45.646Z,0.00
2022-11-16T01:31:45.604Z,0.00
2022-11-16T01:32:45.628Z,0.00
2022-11-16T01:33:45.628Z,0.00
2022-11-16T01:34:45.590Z,0.00
2022-11-16T01:35:45.573Z,0.00
2022-11-16T01:36:45.557Z,0.00
2022-11-16T01:37:45.598Z,0.00
2022-11-16T01:38:45.564Z,0.00
2022-11-16T01:39:45.583Z,0.00
2022-11-16T01:40:45.588Z,0.00
2022-11-16T01:41:45.533Z,0.00
2022-11-16T01:42:45.507Z,0.00
2022-11-16T01:43:45.480Z,0.00
2022-11-16T01:44:45.499Z,0.00
2022-11-16T01:45:45.514Z,0.00
2022-11-16T01:46:45.469Z,0.00
2022-11-16T01:47:45.449Z,0.00
2022-11-16T01:48:45.521Z,0.00
2022-11-16T01:49:45.516Z,0.00
2022-11-16T01:50:45.451Z,0.00
2022-11-16T01:51:45.419Z,0.00
2022-11-16T01:52:45.435Z,0.00
2022-11-16T01:53:45.373Z,0.00
2022-11-16T01:54:45.394Z,0.00
2022-11-16T01:55:45.808Z,0.00
2022-11-16T01:56:46.246Z,0.00
2022-11-16T01:57:45.360Z,0.00
2022-11-16T01:58:45.337Z,0.00
2022-11-16T01:59:45.338Z,0.00
2022-11-16T02:00:45.385Z,0.00
2022-11-16T02:01:45.296Z,0.00
2022-11-16T02:02:45.333Z,0.00
2022-11-16T02:03:45.262Z,0.00
2022-11-16T02:04:45.266Z,0.00
2022-11-16T02:05:45.288Z,0.00
2022-11-16T02:06:45.261Z,0.00
2022-11-16T02:07:45.252Z,0.00
2022-11-16T02:08:45.237Z,0.00
2022-11-16T02:09:45.209Z,0.00
2022-11-16T02:10:45.232Z,0.00
2022-11-16T02:11:45.492Z,0.00
2022-11-16T02:12:45.208Z,0.00
2022-11-16T02:13:45.132Z,1.00
2022-11-16T02:14:45.159Z,0.00
2022-11-16T02:15:45.183Z,0.00
2022-11-16T02:16:45.199Z,0.00
2022-11-16T02:17:45.199Z,0.00
2022-11-16T02:18:45.119Z,0.00
2022-11-16T02:19:45.140Z,0.00
2022-11-16T02:20:45.097Z,0.00
2022-11-16T02:21:45.137Z,0.00
2022-11-16T02:22:45.163Z,0.00
2022-11-16T02:23:45.069Z,0.00
2022-11-16T02:24:45.077Z,0.00
2022-11-16T02:25:45.056Z,0.00
2022-11-16T02:26:45.038Z,0.00
2022-11-16T02:27:45.090Z,0.00
2022-11-16T02:28:45.014Z,0.00
2022-11-16T02:29:45.023Z,0.00
2022-11-16T02:30:45.044Z,0.00
2022-11-16T02:31:44.981Z,0.00
2022-11-16T02:32:44.997Z,0.00
2022-11-16T02:33:44.992Z,0.00
2022-11-16T02:34:45.055Z,0.00
2022-11-16T02:35:45.220Z,0.00
2022-11-16T02:36:44.970Z,0.00
2022-11-16T02:37:44.945Z,0.00
2022-11-16T02:38:44.944Z,0.00
2022-11-16T02:39:44.946Z,0.00
2022-11-16T02:40:45.003Z,0.00
2022-11-16T02:41:44.958Z,0.00
2022-11-16T02:42:44.944Z,0.00
2022-11-16T02:43:44.914Z,0.00
2022-11-16T02:44:44.925Z,0.00
2022-11-16T02:45:44.874Z,0.00
2022-11-16T02:46:44.853Z,0.00
2022-11-16T02:47:44.907Z,0.00
2022-11-16T02:48:44.851Z,0.00
2022-11-16T02:49:44.857Z,0.00
2022-11-16T02:50:44.791Z,0.00
2022-11-16T02:51:44.842Z,0.00
2022-11-16T02:52:44.844Z,0.00
2022-11-16T02:53:44.805Z,0.00
2022-11-16T02:54:44.799Z,0.00
2022-11-16T02:55:44.762Z,0.00
2022-11-16T02:56:44.737Z,0.00
2022-11-16T02:57:44.749Z,0.00
2022-11-16T02:58:44.802Z,0.00
2022-11-16T02:59:44.730Z,0.00
2022-11-16T03:00:44.831Z,0.00
2022-11-16T03:01:44.692Z,0.00
2022-11-16T03:02:44.703Z,0.00
2022-11-16T03:03:44.860Z,0.00
2022-11-16T03:04:44.727Z,0.00
2022-11-16T03:05:44.713Z,0.00
2022-11-16T03:06:44.640Z,0.00
2022-11-16T03:07:44.614Z,0.00
2022-11-16T03:08:44.687Z,0.00
2022-11-16T03:09:44.622Z,0.00
2022-11-16T03:10:44.638Z,0.00
2022-11-16T03:11:44.591Z,0.00
2022-11-16T03:12:45.252Z,0.00
2022-11-16T03:13:44.569Z,0.00
2022-11-16T03:14:44.598Z,0.00
2022-11-16T03:15:44.641Z,0.00
2022-11-16T03:16:44.596Z,0.00
2022-11-16T03:17:44.551Z,0.00
2022-11-16T03:18:44.543Z,0.00
2022-11-16T03:19:44.532Z,0.00
2022-11-16T03:20:44.545Z,0.00
2022-11-16T03:21:44.529Z,0.00
2022-11-16T03:22:44.487Z,0.00
2022-11-16T03:23:44.494Z,0.00
2022-11-16T03:24:44.484Z,0.00
2022-11-16T03:25:44.490Z,0.00
2022-11-16T03:26:44.395Z,0.00
2022-11-16T03:27:44.417Z,0.00
2022-11-16T03:28:44.420Z,0.00
2022-11-16T03:29:44.445Z,0.00
2022-11-16T03:30:44.383Z,0.00
2022-11-16T03:31:44.439Z,0.00
2022-11-16T03:32:44.434Z,0.00
2022-11-16T03:33:44.396Z,0.00
2022-11-16T03:34:44.353Z,0.00
2022-11-16T03:35:44.369Z,0.00
2022-11-16T03:36:44.357Z,0.00
2022-11-16T03:37:44.408Z,0.00
2022-11-16T03:38:44.302Z,0.00
2022-11-16T03:39:44.307Z,0.00
2022-11-16T03:40:44.290Z,0.00
2022-11-16T03:41:44.290Z,0.00
2022-11-16T03:42:44.271Z,0.00
2022-11-16T03:43:44.344Z,0.00
2022-11-16T03:44:44.311Z,0.00
2022-11-16T03:45:44.321Z,0.00
2022-11-16T03:46:44.147Z,1.00
2022-11-16T03:47:44.199Z,0.00
2022-11-16T03:48:44.251Z,0.00
2022-11-16T03:49:44.238Z,0.00
2022-11-16T03:50:44.196Z,0.00
2022-11-16T03:51:44.229Z,0.00
2022-11-16T03:52:44.156Z,0.00
2022-11-16T03:53:44.266Z,0.00
2022-11-16T03:54:44.185Z,0.00
2022-11-16T03:55:49.457Z,0.00
2022-11-16T03:56:44.152Z,0.00
2022-11-16T03:57:44.109Z,0.00
2022-11-16T03:58:44.107Z,0.00
2022-11-16T03:59:44.108Z,0.00
2022-11-16T04:00:44.194Z,0.00
2022-11-16T04:01:45.017Z,0.00
2022-11-16T04:02:44.032Z,0.00
2022-11-16T04:03:44.026Z,0.00
2022-11-16T04:04:44.050Z,0.00
2022-11-16T04:05:44.095Z,0.00
2022-11-16T04:06:44.012Z,0.00
2022-11-16T04:07:44.077Z,0.00
2022-11-16T04:08:43.969Z,0.00
2022-11-16T04:09:44.084Z,0.00
2022-11-16T04:10:43.982Z,0.00
2022-11-16T04:11:43.975Z,0.00
2022-11-16T04:12:43.948Z,0.00
2022-11-16T04:13:43.961Z,0.00
2022-11-16T04:14:43.961Z,0.00
2022-11-16T04:15:43.943Z,0.00
2022-11-16T04:16:43.919Z,0.00
2022-11-16T04:17:43.896Z,0.00
2022-11-16T04:18:43.840Z,0.00
2022-11-16T04:19:43.859Z,0.00
2022-11-16T04:20:43.867Z,0.00
2022-11-16T04:21:43.856Z,0.00
2022-11-16T04:22:43.859Z,0.00
2022-11-16T04:23:43.906Z,0.00
2022-11-16T04:24:43.823Z,0.00
2022-11-16T04:25:43.821Z,0.00
2022-11-16T04:26:43.789Z,0.00
2022-11-16T04:27:43.748Z,0.00
2022-11-16T04:28:43.789Z,0.00
2022-11-16T04:29:43.806Z,0.00
2022-11-16T04:30:43.762Z,0.00
2022-11-16T04:31:43.791Z,0.00
2022-11-16T04:32:43.707Z,0.00
2022-11-16T04:33:43.727Z,0.00
2022-11-16T04:34:43.658Z,1.00
2022-11-16T04:35:43.724Z,0.00
2022-11-16T04:36:43.671Z,0.00
2022-11-16T04:37:43.669Z,1.00
2022-11-16T04:38:43.636Z,0.00
2022-11-16T04:39:43.864Z,0.00
2022-11-16T04:40:43.631Z,0.00
2022-11-16T04:41:43.638Z,0.00
2022-11-16T04:42:43.613Z,0.00
2022-11-16T04:43:43.630Z,0.00
2022-11-16T04:44:43.629Z,0.00
2022-11-16T04:45:43.581Z,0.00
2022-11-16T04:46:43.569Z,0.00
2022-11-16T04:47:43.646Z,0.00
2022-11-16T04:48:43.581Z,0.00
2022-11-16T04:49:43.558Z,0.00
2022-11-16T04:50:43.579Z,0.00
2022-11-16T04:51:43.580Z,0.00
2022-11-16T04:52:43.525Z,0.00
2022-11-16T04:53:43.447Z,1.00
2022-11-16T04:54:43.503Z,0.00
2022-11-16T04:55:43.589Z,0.00
2022-11-16T04:56:43.455Z,0.00
2022-11-16T04:57:43.455Z,0.00
2022-11-16T04:58:43.438Z,0.00
2022-11-16T04:59:43.479Z,0.00
2022-11-16T05:00:43.471Z,0.00
2022-11-16T05:01:43.473Z,0.00
2022-11-16T05:02:43.448Z,0.00
2022-11-16T05:03:43.432Z,0.00
2022-11-16T05:04:43.423Z,0.00
2022-11-16T05:05:43.409Z,0.00
2022-11-16T05:06:43.379Z,0.00
2022-11-16T05:07:43.385Z,0.00
2022-11-16T05:08:43.403Z,0.00
2022-11-16T05:09:43.339Z,0.00
2022-11-16T05:10:43.376Z,0.00
2022-11-16T05:11:43.310Z,0.00
2022-11-16T05:12:43.345Z,0.00
2022-11-16T05:13:43.353Z,0.00
2022-11-16T05:14:43.356Z,0.00
2022-11-16T05:15:43.282Z,0.00
2022-11-16T05:16:43.325Z,0.00
2022-11-16T05:17:43.331Z,0.00
2022-11-16T05:18:43.271Z,0.00
2022-11-16T05:19:43.293Z,0.00
2022-11-16T05:20:43.261Z,0.00
2022-11-16T05:21:43.278Z,0.00
2022-11-16T05:22:43.274Z,0.00
2022-11-16T05:23:43.201Z,0.00
2022-11-16T05:24:43.183Z,0.00
2022-11-16T05:25:43.218Z,0.00
2022-11-16T05:26:43.171Z,1.00
2022-11-16T05:27:43.227Z,0.00
2022-11-16T05:28:43.165Z,0.00
2022-11-16T05:29:43.252Z,1.00
2022-11-16T05:30:43.104Z,0.00
2022-11-16T05:31:43.110Z,0.00
2022-11-16T05:32:43.137Z,0.00
2022-11-16T05:33:43.060Z,1.00
2022-11-16T05:34:43.083Z,0.00
2022-11-16T05:35:43.080Z,0.00
2022-11-16T05:36:43.248Z,0.00
2022-11-16T05:37:43.019Z,1.00
2022-11-16T05:38:43.048Z,0.00
2022-11-16T05:39:43.061Z,0.00
2022-11-16T05:40:43.007Z,0.00
2022-11-16T05:41:43.028Z,0.00
2022-11-16T05:42:43.018Z,0.00
2022-11-16T05:43:43.065Z,0.00
2022-11-16T05:44:42.991Z,0.00
2022-11-16T05:45:42.970Z,0.00
2022-11-16T05:46:42.898Z,1.00
2022-11-16T05:47:42.978Z,0.00
2022-11-16T05:48:42.879Z,1.00
2022-11-16T05:49:42.975Z,0.00
2022-11-16T05:50:43.382Z,0.00
2022-11-16T05:51:42.919Z,0.00
2022-11-16T05:52:42.849Z,1.00
2022-11-16T05:53:43.195Z,0.00
2022-11-16T05:54:43.184Z,0.00
2022-11-16T05:55:42.900Z,0.00
2022-11-16T05:56:42.865Z,0.00
2022-11-16T05:57:42.880Z,1.00
2022-11-16T05:58:42.836Z,0.00
2022-11-16T05:59:42.918Z,0.00
2022-11-16T06:00:42.752Z,1.00
2022-11-16T06:01:42.787Z,0.00
2022-11-16T06:02:42.893Z,0.00
2022-11-16T06:03:42.823Z,0.00
2022-11-16T06:04:42.833Z,0.00
2022-11-16T06:05:42.744Z,1.00
2022-11-16T06:06:42.753Z,0.00
2022-11-16T06:07:42.755Z,0.00
2022-11-16T06:08:42.789Z,0.00
2022-11-16T06:09:42.733Z,1.00
2022-11-16T06:10:42.698Z,0.00
2022-11-16T06:11:42.644Z,1.00
2022-11-16T06:12:42.741Z,0.00
2022-11-16T06:13:42.682Z,0.00
2022-11-16T06:14:42.699Z,0.00
2022-11-16T06:15:42.674Z,0.00
2022-11-16T06:16:42.624Z,0.00
2022-11-16T06:17:42.585Z,1.00
2022-11-16T06:18:42.592Z,1.00
2022-11-16T06:19:42.594Z,1.00
2022-11-16T06:20:42.546Z,1.00
2022-11-16T06:21:42.603Z,0.00
2022-11-16T06:22:42.652Z,0.00
2022-11-16T06:23:42.514Z,2.00
2022-11-16T06:24:42.565Z,0.00
2022-11-16T06:25:42.563Z,0.00
2022-11-16T06:26:42.505Z,2.00
2022-11-16T06:27:42.568Z,1.00
2022-11-16T06:28:42.483Z,1.00
2022-11-16T06:29:42.451Z,4.00
2022-11-16T06:30:42.468Z,9.00
2022-11-16T06:31:42.436Z,8.00
2022-11-16T06:32:42.482Z,7.00
2022-11-16T06:33:42.412Z,6.00
2022-11-16T06:34:42.507Z,5.00
2022-11-16T06:35:42.427Z,4.00
2022-11-16T06:36:42.414Z,3.00
2022-11-16T06:37:42.423Z,9.00
2022-11-16T06:38:42.362Z,14.00
2022-11-16T06:39:42.371Z,13.00
2022-11-16T06:40:42.331Z,15.00
2022-11-16T06:41:42.368Z,16.00
2022-11-16T06:42:42.331Z,18.00
2022-11-16T06:43:42.387Z,19.00
2022-11-16T06:44:42.303Z,17.00
2022-11-16T06:45:42.312Z,18.00
2022-11-16T06:46:42.311Z,26.00
2022-11-16T06:47:42.338Z,28.00
2022-11-16T06:48:42.327Z,36.00
2022-11-16T06:49:42.259Z,42.00
2022-11-16T06:50:42.261Z,50.00
2022-11-16T06:51:42.272Z,48.00
2022-11-16T06:52:42.252Z,52.00
2022-11-16T06:53:42.306Z,54.00
2022-11-16T06:54:42.282Z,55.00
2022-11-16T06:55:42.310Z,63.00
2022-11-16T06:56:42.191Z,71.00
2022-11-16T06:57:42.216Z,64.00
2022-11-16T06:58:43.057Z,68.00
2022-11-16T06:59:42.184Z,76.00
2022-11-16T07:00:42.166Z,76.00
2022-11-16T07:01:42.214Z,81.00
2022-11-16T07:02:42.130Z,83.00
2022-11-16T07:03:42.088Z,88.00
2022-11-16T07:04:42.131Z,89.00
2022-11-16T07:05:42.074Z,90.00
2022-11-16T07:06:42.122Z,94.00
2022-11-16T07:07:42.060Z,97.00
2022-11-16T07:08:42.383Z,100.00
2022-11-16T07:09:42.044Z,98.00
2022-11-16T07:10:42.093Z,100.00
2022-11-16T07:11:42.052Z,102.00
2022-11-16T07:12:41.997Z,107.00
2022-11-16T07:13:42.050Z,111.00
2022-11-16T07:14:41.990Z,113.00
2022-11-16T07:15:41.980Z,125.00
2022-11-16T07:16:42.031Z,119.00
2022-11-16T07:17:42.011Z,118.00
2022-11-16T07:18:42.036Z,127.00
2022-11-16T07:19:41.987Z,137.00
2022-11-16T07:20:41.903Z,152.00
2022-11-16T07:21:41.943Z,138.00
2022-11-16T07:22:41.963Z,162.00
2022-11-16T07:23:41.913Z,176.00
2022-11-16T07:24:41.910Z,189.00
2022-11-16T07:25:41.904Z,164.00
2022-11-16T07:26:42.748Z,180.00
2022-11-16T07:27:41.877Z,170.00
2022-11-16T07:28:47.774Z,157.00
2022-11-16T07:29:41.930Z,129.00
2022-11-16T07:30:41.882Z,136.00
2022-11-16T07:31:42.484Z,157.00
2022-11-16T07:32:41.793Z,208.00
2022-11-16T07:33:41.847Z,101.00
2022-11-16T07:34:41.767Z,129.00
2022-11-16T07:35:41.798Z,175.00
2022-11-16T07:36:41.751Z,193.00
2022-11-16T07:37:42.543Z,200.00
2022-11-16T07:38:41.739Z,234.00
2022-11-16T07:39:41.729Z,225.00
2022-11-16T07:40:41.739Z,190.00
2022-11-16T07:41:41.718Z,202.00
2022-11-16T07:42:41.731Z,211.00
2022-11-16T07:43:41.938Z,197.00
2022-11-16T07:44:41.678Z,207.00
2022-11-16T07:45:41.642Z,216.00
2022-11-16T07:46:47.188Z,242.00
2022-11-16T07:47:41.636Z,229.00
2022-11-16T07:48:41.656Z,218.00
2022-11-16T07:49:41.614Z,225.00
2022-11-16T07:50:41.600Z,224.00
2022-11-16T07:51:41.580Z,213.00
2022-11-16T07:52:41.605Z,228.00
2022-11-16T07:53:41.634Z,227.00
2022-11-16T07:54:41.584Z,301.00
2022-11-16T07:55:41.569Z,278.00
2022-11-16T07:56:41.533Z,244.00
2022-11-16T07:57:41.523Z,217.00
2022-11-16T07:58:41.577Z,370.00
2022-11-16T07:59:41.495Z,150.00
2022-11-16T08:00:42.245Z,171.00
2022-11-16T08:01:41.500Z,226.00
2022-11-16T08:02:41.478Z,189.00
2022-11-16T08:03:41.466Z,227.00
2022-11-16T08:04:41.718Z,270.00
2022-11-16T08:05:41.684Z,513.00
2022-11-16T08:06:41.615Z,434.00
2022-11-16T08:07:41.456Z,315.00
2022-11-16T08:08:42.459Z,280.00
2022-11-16T08:09:41.680Z,254.00
2022-11-16T08:10:41.541Z,246.00
2022-11-16T08:11:41.437Z,246.00
2022-11-16T08:12:41.464Z,243.00
2022-11-16T08:13:41.419Z,240.00
2022-11-16T08:14:41.440Z,246.00
2022-11-16T08:15:41.385Z,256.00
2022-11-16T08:16:41.405Z,270.00
2022-11-16T08:17:41.382Z,284.00
2022-11-16T08:18:41.350Z,290.00
2022-11-16T08:19:41.365Z,297.00
2022-11-16T08:20:41.356Z,279.00
2022-11-16T08:21:41.281Z,290.00
2022-11-16T08:22:41.283Z,293.00
2022-11-16T08:23:41.275Z,287.00
2022-11-16T08:24:41.293Z,305.00
2022-11-16T08:25:41.276Z,259.00
2022-11-16T08:26:41.340Z,275.00
2022-11-16T08:27:41.226Z,265.00
2022-11-16T08:28:41.305Z,229.00
2022-11-16T08:29:41.245Z,277.00
2022-11-16T08:30:41.219Z,274.00
2022-11-16T08:31:41.838Z,264.00
2022-11-16T08:32:41.244Z,170.00
2022-11-16T08:33:43.263Z,191.00
2022-11-16T08:34:41.536Z,209.00
2022-11-16T08:35:41.165Z,232.00
2022-11-16T08:36:42.870Z,277.00
2022-11-16T08:37:41.143Z,407.00
2022-11-16T08:38:41.148Z,490.00
2022-11-16T08:39:41.131Z,893.00
2022-11-16T08:40:41.092Z,496.00
2022-11-16T08:41:41.155Z,440.00
2022-11-16T08:42:43.790Z,425.00
2022-11-16T08:43:41.096Z,396.00
2022-11-16T08:44:41.248Z,423.00
2022-11-16T08:45:41.149Z,401.00
2022-11-16T08:46:41.070Z,371.00
2022-11-16T08:47:41.054Z,361.00
2022-11-16T08:48:40.994Z,387.00
2022-11-16T08:49:45.166Z,298.00
2022-11-16T08:51:15.406Z,214.00
2022-11-16T08:51:41.314Z,372.00
2022-11-16T08:52:41.582Z,339.00
2022-11-16T08:53:41.286Z,342.00
2022-11-16T08:54:41.160Z,330.00
2022-11-16T08:55:41.382Z,324.00
2022-11-16T08:56:41.947Z,268.00
2022-11-16T08:57:41.056Z,138.00
2022-11-16T08:58:40.920Z,223.00
2022-11-16T08:59:40.883Z,203.00
2022-11-16T09:00:40.970Z,278.00
2022-11-16T09:01:41.081Z,594.00
2022-11-16T09:02:40.983Z,407.00
2022-11-16T09:03:42.110Z,285.00
2022-11-16T09:04:40.852Z,274.00
2022-11-16T09:05:40.804Z,544.00
2022-11-16T09:06:40.923Z,221.00
2022-11-16T09:07:41.061Z,273.00
2022-11-16T09:08:40.797Z,368.00
2022-11-16T09:09:40.770Z,463.00
2022-11-16T09:10:40.829Z,504.00
2022-11-16T09:11:40.765Z,977.00
2022-11-16T09:12:40.792Z,384.00
2022-11-16T09:13:40.758Z,251.00
2022-11-16T09:14:40.780Z,650.00
2022-11-16T09:15:41.844Z,793.00
2022-11-16T09:16:41.270Z,365.00
2022-11-16T09:17:40.701Z,377.00
2022-11-16T09:18:41.025Z,235.00
2022-11-16T09:19:43.151Z,264.00
2022-11-16T09:21:40.641Z,829.00
2022-11-16T09:21:45.849Z,278.00
2022-11-16T09:22:45.672Z,502.00
2022-11-16T09:23:45.674Z,372.00
2022-11-16T09:24:45.763Z,762.00
2022-11-16T09:25:45.795Z,615.00
2022-11-16T09:26:45.667Z,744.00
2022-11-16T09:27:45.654Z,484.00
2022-11-16T09:28:45.606Z,403.00
2022-11-16T09:29:45.609Z,275.00
2022-11-16T09:30:45.582Z,307.00
2022-11-16T09:31:45.564Z,736.00
2022-11-16T09:32:46.449Z,521.00
2022-11-16T09:33:45.570Z,359.00
2022-11-16T09:34:45.850Z,444.00
2022-11-16T09:35:45.728Z,430.00
2022-11-16T09:36:45.653Z,399.00
2022-11-16T09:37:45.550Z,395.00
2022-11-16T09:39:45.571Z,431.00
2022-11-16T09:40:45.484Z,438.00
2022-11-16T09:41:45.760Z,426.00
2022-11-16T09:42:45.492Z,406.00
2022-11-16T09:43:46.690Z,404.00
2022-11-16T09:44:45.584Z,480.00
2022-11-16T09:45:46.328Z,477.00
2022-11-16T09:46:46.383Z,474.00
2022-11-16T09:47:45.631Z,520.00
2022-11-16T09:48:45.447Z,448.00
2022-11-16T09:49:45.395Z,468.00
2022-11-16T09:50:45.398Z,621.00
2022-11-16T09:51:45.690Z,581.00
2022-11-16T09:52:45.340Z,598.00
2022-11-16T09:53:45.401Z,554.00
2022-11-16T09:54:45.328Z,538.00
2022-11-16T09:55:45.374Z,484.00
2022-11-16T09:56:45.312Z,436.00
2022-11-16T09:57:45.388Z,477.00
2022-11-16T09:58:45.324Z,280.00
2022-11-16T09:59:45.351Z,749.00
2022-11-16T10:00:45.450Z,507.00
2022-11-16T10:01:45.284Z,476.00
2022-11-16T10:02:45.421Z,444.00
2022-11-16T10:03:45.239Z,515.00
2022-11-16T10:04:45.231Z,425.00
2022-11-16T10:05:45.228Z,415.00
2022-11-16T10:06:45.275Z,585.00
2022-11-16T10:07:45.178Z,379.00
2022-11-16T10:08:45.271Z,767.00
2022-11-16T10:09:45.295Z,459.00
2022-11-16T10:10:45.455Z,1025.00
2022-11-16T10:11:45.471Z,680.00
2022-11-16T10:12:47.375Z,639.00
2022-11-16T10:13:45.652Z,520.00
2022-11-16T10:14:45.222Z,417.00
2022-11-16T10:15:45.351Z,388.00
2022-11-16T10:16:45.888Z,425.00
2022-11-16T10:17:45.494Z,368.00
2022-11-16T10:18:45.469Z,646.00
2022-11-16T10:19:45.209Z,423.00
2022-11-16T10:20:45.522Z,414.00
2022-11-16T10:21:45.050Z,463.00
2022-11-16T10:22:45.037Z,460.00
2022-11-16T10:23:45.204Z,415.00
2022-11-16T10:24:45.814Z,425.00
2022-11-16T10:25:45.014Z,411.00
2022-11-16T10:26:45.025Z,400.00
2022-11-16T10:27:44.959Z,362.00
2022-11-16T10:28:44.984Z,359.00
2022-11-16T10:29:44.957Z,347.00
2022-11-16T10:30:44.989Z,339.00
2022-11-16T10:31:44.941Z,309.00
2022-11-16T10:32:44.963Z,323.00
2022-11-16T10:33:45.052Z,297.00
2022-11-16T10:34:44.980Z,263.00
2022-11-16T10:35:45.177Z,207.00
2022-11-16T10:36:44.921Z,150.00
2022-11-16T10:37:44.912Z,164.00
2022-11-16T10:38:44.916Z,369.00
2022-11-16T10:39:53.874Z,336.00
2022-11-16T10:40:45.269Z,419.00
2022-11-16T10:41:44.920Z,425.00
2022-11-16T10:42:44.825Z,404.00
2022-11-16T10:43:44.820Z,275.00
2022-11-16T10:44:44.895Z,953.00
2022-11-16T10:45:44.858Z,440.00
2022-11-16T10:46:44.804Z,611.00
2022-11-16T10:47:45.115Z,326.00
2022-11-16T10:48:44.850Z,594.00
2022-11-16T10:49:44.830Z,890.00
2022-11-16T10:50:44.876Z,765.00
2022-11-16T10:51:44.894Z,370.00
2022-11-16T10:52:44.882Z,846.00
2022-11-16T10:53:46.015Z,422.00
2022-11-16T10:54:44.887Z,658.00
2022-11-16T10:55:44.848Z,640.00
2022-11-16T10:56:44.816Z,836.00
2022-11-16T10:57:45.241Z,1482.00
2022-11-16T10:58:44.930Z,918.00
2022-11-16T10:59:45.137Z,487.00
2022-11-16T11:00:45.353Z,900.00
2022-11-16T11:01:46.280Z,729.00
2022-11-16T11:02:45.054Z,584.00
2022-11-16T11:03:44.599Z,637.00
2022-11-16T11:04:44.754Z,810.00
2022-11-16T11:05:44.613Z,688.00
2022-11-16T11:06:44.587Z,632.00
2022-11-16T11:07:44.881Z,623.00
2022-11-16T11:08:44.578Z,593.00
2022-11-16T11:09:44.758Z,366.00
2022-11-16T11:10:44.590Z,748.00
2022-11-16T11:11:44.515Z,390.00
2022-11-16T11:12:44.596Z,666.00
2022-11-16T11:13:44.487Z,404.00
2022-11-16T11:14:44.471Z,1678.00
2022-11-16T11:15:44.535Z,586.00
2022-11-16T11:16:44.501Z,957.00
2022-11-16T11:17:44.689Z,722.00
2022-11-16T11:18:44.553Z,642.00
2022-11-16T11:19:44.547Z,630.00
2022-11-16T11:20:46.090Z,584.00
2022-11-16T11:21:45.115Z,563.00
2022-11-16T11:22:45.134Z,724.00
2022-11-16T11:23:44.584Z,559.00
2022-11-16T11:24:45.452Z,596.00
2022-11-16T11:25:44.444Z,494.00
2022-11-16T11:26:44.533Z,540.00
2022-11-16T11:27:44.647Z,573.00
2022-11-16T11:28:44.558Z,596.00
2022-11-16T11:29:44.559Z,484.00
2022-11-16T11:30:44.738Z,437.00
2022-11-16T11:31:44.549Z,455.00
2022-11-16T11:32:44.385Z,459.00
2022-11-16T11:33:44.527Z,457.00
2022-11-16T11:34:44.447Z,497.00
2022-11-16T11:35:44.547Z,511.00
2022-11-16T11:36:44.341Z,463.00
2022-11-16T11:37:44.456Z,435.00
2022-11-16T11:38:44.474Z,447.00
2022-11-16T11:39:44.781Z,540.00
2022-11-16T11:40:44.454Z,553.00
2022-11-16T11:41:44.298Z,542.00
2022-11-16T11:42:44.305Z,572.00
2022-11-16T11:43:44.637Z,557.00
2022-11-16T11:44:44.346Z,591.00
2022-11-16T11:45:44.750Z,597.00
2022-11-16T11:47:35.256Z,586.00
2022-11-16T11:47:58.493Z,589.00
2022-11-16T11:48:44.230Z,578.00
2022-11-16T11:49:44.464Z,571.00
2022-11-16T11:50:44.378Z,622.00
2022-11-16T11:51:44.260Z,742.00
2022-11-16T11:52:44.222Z,744.00
2022-11-16T11:53:44.492Z,730.00
2022-11-16T11:54:46.004Z,384.00
2022-11-16T11:55:44.189Z,1844.00
2022-11-16T11:56:44.085Z,844.00
2022-11-16T11:57:44.174Z,596.00
2022-11-16T11:58:44.218Z,415.00
2022-11-16T11:59:44.070Z,1401.00
2022-11-16T12:00:44.741Z,461.00
2022-11-16T12:01:44.094Z,1267.00
2022-11-16T12:02:44.195Z,499.00
2022-11-16T12:03:44.032Z,898.00
2022-11-16T12:04:44.143Z,874.00
2022-11-16T12:05:44.308Z,1239.00
2022-11-16T12:06:44.612Z,1209.00
2022-11-16T12:07:44.149Z,964.00
2022-11-16T12:08:44.697Z,770.00
2022-11-16T12:09:44.214Z,641.00
2022-11-16T12:10:44.550Z,595.00
2022-11-16T12:11:44.076Z,610.00
2022-11-16T12:12:44.095Z,489.00
2022-11-16T12:13:44.139Z,852.00
2022-11-16T12:14:44.080Z,577.00
2022-11-16T12:15:44.049Z,475.00
2022-11-16T12:16:43.937Z,454.00
2022-11-16T12:17:43.928Z,498.00
2022-11-16T12:18:43.982Z,513.00
2022-11-16T12:19:44.107Z,581.00
2022-11-16T12:20:45.157Z,590.00
2022-11-16T12:21:43.820Z,649.00
2022-11-16T12:22:44.483Z,525.00
2022-11-16T12:23:44.268Z,506.00
2022-11-16T12:24:43.824Z,440.00
2022-11-16T12:25:44.072Z,437.00
2022-11-16T12:26:43.803Z,406.00
2022-11-16T12:27:43.824Z,398.00
2022-11-16T12:28:48.418Z,382.00
2022-11-16T12:29:51.604Z,229.00
2022-11-16T12:30:44.003Z,428.00
2022-11-16T12:32:07.439Z,455.00
2022-11-16T12:33:08.178Z,418.00
2022-11-16T12:33:45.861Z,474.00
2022-11-16T12:36:11.808Z,449.00
2022-11-16T12:37:12.218Z,467.00
2022-11-16T12:38:13.505Z,440.00
2022-11-16T12:39:13.413Z,428.00
2022-11-16T12:40:12.386Z,428.00
2022-11-16T12:41:12.412Z,443.00
2022-11-16T12:42:12.305Z,451.00
2022-11-16T12:43:12.460Z,465.00
2022-11-16T12:44:12.280Z,486.00
2022-11-16T12:45:12.353Z,504.00
2022-11-16T12:46:12.476Z,486.00
2022-11-16T12:51:03.467Z,403.00
2022-11-16T12:51:57.304Z,398.00
2022-11-16T12:52:58.319Z,392.00
2022-11-16T12:56:43.354Z,417.00
2022-11-16T12:57:59.812Z,420.00
2022-11-16T13:06:49.824Z,367.00
2022-11-16T13:06:55.281Z,187.00
2022-11-16T13:07:55.105Z,221.00
2022-11-16T13:08:55.107Z,635.00
2022-11-16T13:09:55.020Z,253.00
2022-11-16T13:10:55.021Z,337.00